Time;durP1;ratioP1;P1;durP2;ratioP2;P2;SDS_P1;SDS_P2;PMS_P1;PMS_P2;Temp;Humidity;BMP_temperature;BMP_pressure;BME280_temperature;BME280_humidity;BME280_pressure;Samples;Min_cycle;Max_cycle;Signal;HPM_P1;HPM_P2
2023/10/12 00:02:15;;;;;;;19.17;1.92;;;13.40;99.90;;;;;;4920596;28;20046;-79
2023/10/12 00:04:43;;;;;;;17.77;2.92;;;13.30;99.90;;;;;;4937172;28;20611;-77
2023/10/12 00:07:36;;;;;;;22.38;2.28;;;13.30;99.90;;;;;;4936531;28;20245;-81
2023/10/12 00:10:20;;;;;;;18.27;2.08;;;13.30;99.90;;;;;;4930516;28;20153;-80
2023/10/12 00:12:46;;;;;;;14.10;1.85;;;13.30;99.90;;;;;;4936342;28;20059;-79
2023/10/12 00:17:47;;;;;;;27.67;2.13;;;13.20;99.90;;;;;;4937535;28;20598;-79
2023/10/12 00:20:55;;;;;;;20.42;1.85;;;13.20;99.90;;;;;;4945645;28;20050;-78
2023/10/12 00:23:10;;;;;;;27.15;2.83;;;13.20;99.90;;;;;;4931642;28;20134;-79
2023/10/12 00:25:54;;;;;;;26.25;2.53;;;13.10;99.90;;;;;;4937286;28;20046;-80
2023/10/12 00:28:28;;;;;;;19.77;2.20;;;13.10;99.90;;;;;;4937541;28;20506;-80
2023/10/12 00:30:57;;;;;;;21.42;2.20;;;13.00;99.90;;;;;;4937364;28;20054;-76
2023/10/12 00:33:24;;;;;;;26.70;2.20;;;13.00;99.90;;;;;;4972213;28;20062;-81
2023/10/12 00:35:53;;;;;;;20.65;2.25;;;13.00;99.90;;;;;;4968264;28;20050;-83
2023/10/12 00:38:23;;;;;;;27.20;2.83;;;13.00;99.90;;;;;;4985695;28;20125;-79
2023/10/12 00:40:50;;;;;;;24.40;2.97;;;12.90;99.90;;;;;;4978619;28;20046;-81
2023/10/12 00:43:15;;;;;;;22.05;2.58;;;12.90;99.90;;;;;;4973943;28;20081;-80
2023/10/12 00:45:43;;;;;;;23.27;3.50;;;12.90;99.90;;;;;;4971389;28;20133;-82
2023/10/12 00:48:17;;;;;;;15.20;1.67;;;12.80;99.90;;;;;;4977219;28;20057;-80
2023/10/12 00:50:45;;;;;;;19.92;2.75;;;12.80;99.90;;;;;;4986002;28;20050;-81
2023/10/12 00:53:22;;;;;;;19.02;2.45;;;12.80;99.90;;;;;;4958571;28;20120;-81
2023/10/12 00:55:50;;;;;;;28.27;3.40;;;12.80;99.90;;;;;;4975654;28;20548;-80
2023/10/12 00:58:17;;;;;;;26.38;3.17;;;12.80;99.90;;;;;;4975827;28;20319;-81
2023/10/12 01:00:51;;;;;;;28.75;2.83;;;12.80;99.90;;;;;;4965366;28;20810;-81
2023/10/12 01:03:30;;;;;;;22.17;3.65;;;12.80;99.90;;;;;;5001023;28;20054;-81
2023/10/12 01:06:13;;;;;;;15.63;1.90;;;12.80;99.90;;;;;;4977872;28;20211;-78
2023/10/12 01:08:43;;;;;;;23.98;2.50;;;12.80;99.90;;;;;;4974801;28;20058;-83
2023/10/12 01:11:25;;;;;;;20.17;2.72;;;12.80;99.90;;;;;;4977445;28;20462;-82
2023/10/12 01:16:42;;;;;;;19.52;2.20;;;12.70;99.90;;;;;;4994438;28;20058;-80
2023/10/12 01:19:09;;;;;;;31.17;2.80;;;12.70;99.90;;;;;;4977847;28;20069;-80
2023/10/12 01:21:38;;;;;;;24.80;2.53;;;12.70;99.90;;;;;;4976854;28;20153;-84
2023/10/12 01:24:11;;;;;;;24.65;2.65;;;12.70;99.90;;;;;;4993593;28;20077;-81
2023/10/12 01:26:43;;;;;;;17.77;2.58;;;12.70;99.90;;;;;;4982755;28;20681;-81
2023/10/12 01:29:19;;;;;;;15.60;2.00;;;12.70;99.90;;;;;;4983932;28;20408;-80
2023/10/12 01:32:01;;;;;;;22.75;2.38;;;12.70;99.90;;;;;;4975788;28;20050;-80
2023/10/12 01:34:29;;;;;;;14.27;2.00;;;12.70;99.90;;;;;;4975980;28;20097;-81
2023/10/12 01:36:58;;;;;;;27.08;2.72;;;12.70;99.90;;;;;;4970112;28;20112;-80
2023/10/12 01:39:28;;;;;;;21.73;2.80;;;12.70;99.90;;;;;;4976144;28;20058;-80
2023/10/12 01:41:57;;;;;;;21.10;1.88;;;12.70;99.90;;;;;;4992245;28;20131;-81
2023/10/12 01:44:23;;;;;;;22.35;2.75;;;12.70;99.90;;;;;;4976057;28;20549;-78
2023/10/12 01:46:49;;;;;;;26.73;2.90;;;12.70;99.90;;;;;;4993136;28;20073;-78
2023/10/12 01:49:19;;;;;;;21.35;3.15;;;12.70;99.90;;;;;;4992887;28;20057;-78
2023/10/12 01:51:48;;;;;;;23.67;2.50;;;12.70;99.90;;;;;;4977677;28;20085;-80
2023/10/12 01:54:24;;;;;;;22.48;2.22;;;12.70;99.90;;;;;;4977707;28;20061;-78
2023/10/12 01:56:55;;;;;;;18.95;2.35;;;12.80;99.90;;;;;;4976943;28;20089;-81
2023/10/12 01:59:25;;;;;;;21.23;2.47;;;12.80;99.90;;;;;;4976981;28;20047;-80
2023/10/12 02:01:56;;;;;;;13.15;1.95;;;12.80;99.90;;;;;;4991986;28;20054;-77
2023/10/12 02:04:22;;;;;;;25.08;2.97;;;13.30;99.90;;;;;;4993631;28;20085;-82
2023/10/12 02:06:48;;;;;;;39.40;2.97;;;12.70;99.90;;;;;;4976715;28;20169;-78
2023/10/12 02:09:15;;;;;;;16.10;2.17;;;12.80;99.90;;;;;;4977167;28;20050;-77
2023/10/12 02:11:45;;;;;;;24.42;2.38;;;12.80;99.90;;;;;;4977247;28;20113;-78
2023/10/12 02:14:12;;;;;;;18.50;1.63;;;12.70;99.90;;;;;;4977352;28;20137;-80
2023/10/12 02:16:39;;;;;;;27.95;2.63;;;12.70;99.90;;;;;;4976926;28;20065;-80
2023/10/12 02:19:08;;;;;;;23.75;3.45;;;12.60;99.90;;;;;;4985756;28;20147;-80
2023/10/12 02:21:37;;;;;;;20.30;2.33;;;12.60;99.90;;;;;;4979298;28;20054;-79
2023/10/12 02:26:37;;;;;;;25.27;2.50;;;12.60;99.90;;;;;;4992253;28;20058;-79
2023/10/12 02:29:11;;;;;;;25.00;2.30;;;12.50;99.90;;;;;;4960590;28;20149;-79
2023/10/12 02:34:18;;;;;;;32.38;3.22;;;12.50;99.90;;;;;;4976500;28;20069;-81
2023/10/12 02:37:00;;;;;;;21.48;2.55;;;12.50;99.90;;;;;;4976460;28;20085;-80
2023/10/12 02:39:30;;;;;;;15.77;2.25;;;12.40;99.90;;;;;;4974164;28;20149;-78
2023/10/12 02:42:38;;;;;;;31.75;2.83;;;12.50;99.90;;;;;;4974089;28;20433;-82
2023/10/12 02:47:22;;;;;;;24.02;3.60;;;12.40;99.90;;;;;;4990455;28;20526;-82
2023/10/12 02:52:34;;;;;;;21.02;3.30;;;12.40;99.90;;;;;;4971018;28;20377;-80
2023/10/12 02:55:49;;;;;;;33.20;3.90;;;12.40;99.90;;;;;;4975440;28;20097;-80
2023/10/12 02:57:59;;;;;;;15.82;3.17;;;12.30;99.90;;;;;;4968715;28;20137;-79
2023/10/12 03:03:06;;;;;;;22.70;3.58;;;12.30;99.90;;;;;;4991067;28;20058;-80
2023/10/12 03:05:45;;;;;;;14.93;2.55;;;12.20;99.90;;;;;;4959151;28;20042;-76
2023/10/12 03:08:14;;;;;;;15.57;2.38;;;12.20;99.90;;;;;;4975075;28;20053;-79
2023/10/12 03:11:31;;;;;;;24.27;3.05;;;12.20;99.90;;;;;;4971653;28;20509;-79
2023/10/12 03:13:41;;;;;;;22.27;2.80;;;12.10;99.90;;;;;;4967453;28;20766;-77
2023/10/12 03:17:02;;;;;;;23.40;2.70;;;12.10;99.90;;;;;;4982707;28;20051;-81
2023/10/12 03:19:00;;;;;;;17.92;2.47;;;12.10;99.90;;;;;;4962174;28;20047;-79
2023/10/12 03:21:33;;;;;;;22.60;2.63;;;12.00;99.90;;;;;;4979208;28;20105;-79
2023/10/12 03:24:03;;;;;;;19.13;2.88;;;12.00;99.90;;;;;;4974777;28;20501;-77
2023/10/12 03:26:29;;;;;;;19.77;3.33;;;12.00;99.90;;;;;;4991399;28;20081;-78
2023/10/12 03:36:58;;;;;;;22.88;2.92;;;11.80;99.90;;;;;;4974467;28;20061;-81
2023/10/12 03:39:28;;;;;;;25.30;4.00;;;11.80;99.90;;;;;;4982466;28;20132;-81
2023/10/12 03:42:07;;;;;;;28.05;3.75;;;11.80;99.90;;;;;;4973356;28;20043;-82
2023/10/12 03:44:36;;;;;;;30.40;4.00;;;9.90;99.90;;;;;;4957478;28;20086;-82
2023/10/12 03:52:28;;;;;;;26.40;4.45;;;11.70;99.90;;;;;;4991399;28;20066;-79
2023/10/12 03:54:55;;;;;;;30.52;4.32;;;11.60;99.90;;;;;;4974711;28;20685;-79
2023/10/12 03:57:38;;;;;;;39.08;5.28;;;11.60;99.90;;;;;;4974900;28;20153;-82
2023/10/12 04:02:41;;;;;;;25.58;3.85;;;11.60;99.90;;;;;;4990360;28;20058;-78
2023/10/12 04:21:17;;;;;;;26.67;5.18;;;11.60;99.90;;;;;;4978385;28;20112;-82
2023/10/12 04:23:46;;;;;;;29.00;4.85;;;11.60;99.90;;;;;;4973593;28;20121;-80
2023/10/12 04:29:13;;;;;;;33.50;5.13;;;11.70;99.90;;;;;;4974854;28;20104;-80
2023/10/12 04:36:44;;;;;;;30.65;5.82;;;11.70;99.90;;;;;;4990575;28;20057;-83
2023/10/12 04:39:16;;;;;;;28.83;5.47;;;11.70;99.90;;;;;;4973556;28;20058;-84
2023/10/12 04:41:54;;;;;;;;;;;11.70;99.90;;;;;;4974232;28;20061;-82
2023/10/12 04:46:59;;;;;;;21.13;4.25;;;11.80;99.90;;;;;;4978347;28;20054;-82
2023/10/12 04:54:59;;;;;;;20.40;4.65;;;11.80;99.90;;;;;;4984743;28;20050;-81
2023/10/12 04:57:34;;;;;;;24.73;4.40;;;11.90;99.90;;;;;;4984650;28;20085;-82
2023/10/12 05:07:57;;;;;;;37.58;5.75;;;12.00;99.90;;;;;;4974044;28;19932;-82
2023/10/12 05:10:31;;;;;;;25.83;5.47;;;11.90;99.90;;;;;;4973772;28;20050;-74
2023/10/12 05:13:04;;;;;;;31.33;5.28;;;11.90;99.90;;;;;;4973642;28;20086;-81
2023/10/12 05:15:42;;;;;;;26.25;5.28;;;12.00;99.90;;;;;;4989326;28;20497;-80
2023/10/12 05:18:12;;;;;;;20.15;4.45;;;12.00;99.90;;;;;;4971983;28;20061;-79
2023/10/12 05:20:42;;;;;;;29.92;5.50;;;12.00;99.90;;;;;;4984805;28;20054;-80
2023/10/12 05:23:09;;;;;;;29.52;5.38;;;12.00;99.90;;;;;;4973854;28;20073;-79
2023/10/12 05:26:25;;;;;;;39.13;6.07;;;12.00;99.90;;;;;;4968193;28;20090;-82
2023/10/12 05:28:27;;;;;;;32.90;5.20;;;12.00;99.90;;;;;;4976281;28;20050;-80
2023/10/12 05:36:13;;;;;;;20.52;4.00;;;12.00;99.90;;;;;;4990829;28;20514;-81
2023/10/12 05:38:41;;;;;;;24.80;4.45;;;12.00;99.90;;;;;;4988633;28;20129;-79
2023/10/12 05:41:08;;;;;;;32.88;4.65;;;12.00;99.90;;;;;;4983020;28;20089;-83
2023/10/12 05:43:40;;;;;;;29.58;4.25;;;12.00;99.90;;;;;;4985531;28;20112;-78
2023/10/12 05:46:15;;;;;;;25.17;4.63;;;12.00;99.90;;;;;;4994021;28;20039;-79
2023/10/12 05:48:45;;;;;;;27.13;4.97;;;12.00;99.90;;;;;;4974329;28;20050;-79
2023/10/12 05:51:19;;;;;;;21.60;4.82;;;12.00;99.90;;;;;;4975737;28;20157;-84
2023/10/12 05:53:45;;;;;;;28.02;5.20;;;12.00;99.90;;;;;;4978094;28;20148;-81
2023/10/12 05:56:12;;;;;;;30.70;4.80;;;12.00;99.90;;;;;;4977374;28;20089;-76
2023/10/12 05:58:40;;;;;;;16.80;3.50;;;12.00;99.90;;;;;;4977718;28;20050;-78
2023/10/12 06:01:09;;;;;;;36.42;5.20;;;11.90;99.90;;;;;;4960314;28;20089;-83
2023/10/12 06:03:46;;;;;;;27.17;5.00;;;11.90;99.90;;;;;;4978477;28;20053;-79
2023/10/12 06:06:12;;;;;;;27.00;3.97;;;11.80;99.90;;;;;;4961400;28;20057;-80
2023/10/12 06:08:40;;;;;;;39.63;5.32;;;11.70;99.90;;;;;;4961658;28;20058;-82
2023/10/12 06:11:07;;;;;;;25.55;3.90;;;11.70;99.90;;;;;;4977963;28;20116;-79
2023/10/12 06:13:42;;;;;;;35.85;5.38;;;11.40;99.90;;;;;;4994132;28;20057;-81
2023/10/12 06:16:26;;;;;;;16.02;3.45;;;11.50;99.90;;;;;;4976260;28;20077;-81
2023/10/12 06:18:54;;;;;;;36.60;5.30;;;11.40;99.90;;;;;;4993195;28;20148;-78
2023/10/12 06:21:24;;;;;;;34.58;4.93;;;11.40;99.90;;;;;;4976352;28;20054;-82
2023/10/12 06:23:56;;;;;;;35.13;5.00;;;11.20;99.90;;;;;;4975274;28;20148;-82
2023/10/12 06:26:34;;;;;;;23.73;3.80;;;11.20;99.90;;;;;;4958633;28;20069;-78
2023/10/12 06:29:08;;;;;;;27.10;3.58;;;11.20;99.90;;;;;;4958664;28;20137;-83
2023/10/12 06:31:36;;;;;;;28.20;3.55;;;11.00;99.90;;;;;;4975122;28;20062;-78
2023/10/12 06:34:10;;;;;;;28.73;3.13;;;11.00;99.90;;;;;;4968536;28;20144;-80
2023/10/12 06:36:37;;;;;;;27.35;4.60;;;11.00;99.90;;;;;;4981173;28;20151;-83
2023/10/12 06:44:22;;;;;;;24.10;2.80;;;11.00;99.90;;;;;;4991215;28;20112;-80
2023/10/12 06:46:49;;;;;;;26.45;3.72;;;11.10;99.90;;;;;;4975076;28;20295;-80
2023/10/12 06:49:21;;;;;;;19.52;2.88;;;11.10;99.90;;;;;;4978893;28;20062;-79
2023/10/12 06:51:54;;;;;;;17.90;3.10;;;12.60;99.90;;;;;;4977531;28;20134;-80
2023/10/12 06:54:31;;;;;;;20.70;4.05;;;11.10;99.90;;;;;;4961752;28;20050;-80
2023/10/12 06:59:58;;;;;;;27.15;4.50;;;11.20;99.90;;;;;;4975551;28;20077;-78
2023/10/12 07:02:29;;;;;;;20.27;2.67;;;11.20;99.90;;;;;;4976487;28;20465;-84
2023/10/12 07:05:01;;;;;;;23.95;3.72;;;11.20;99.90;;;;;;4992514;28;20052;-79
2023/10/12 07:07:29;;;;;;;;;;;11.20;99.90;;;;;;4989349;28;20661;-80
2023/10/12 07:12:48;;;;;;;17.38;2.95;;;11.20;99.90;;;;;;4992942;28;20058;-81
2023/10/12 07:15:23;;;;;;;19.90;3.22;;;11.30;99.90;;;;;;4977509;28;20050;-81
2023/10/12 07:17:55;;;;;;;24.58;3.40;;;11.30;99.90;;;;;;4978063;28;20557;-79
2023/10/12 07:23:04;;;;;;;17.25;3.20;;;11.30;99.90;;;;;;4991620;28;20044;-81
2023/10/12 07:25:35;;;;;;;25.90;3.20;;;11.30;99.90;;;;;;4975510;28;20069;-83
2023/10/12 07:28:01;;;;;;;27.60;4.63;;;11.50;99.90;;;;;;4991765;28;20145;-80
2023/10/12 07:30:30;;;;;;;27.50;4.22;;;11.60;99.90;;;;;;4976247;28;20053;-82
2023/10/12 07:33:04;;;;;;;17.58;3.15;;;11.70;99.90;;;;;;4998519;28;20413;-84
2023/10/12 07:35:38;;;;;;;18.95;3.70;;;11.80;99.90;;;;;;4975027;28;20042;-78
2023/10/12 07:38:13;;;;;;;24.33;4.00;;;11.80;99.90;;;;;;4979755;28;20050;-80
2023/10/12 07:43:22;;;;;;;12.85;2.45;;;12.00;99.90;;;;;;4986046;28;20062;-81
2023/10/12 07:45:48;;;;;;;24.95;3.03;;;12.10;99.90;;;;;;4976757;28;20049;-78
2023/10/12 07:49:22;;;;;;;24.92;3.03;;;12.20;99.90;;;;;;4957182;28;20054;-79
2023/10/12 07:53:56;;;;;;;;;;;12.40;99.90;;;;;;4965206;28;20054;-81
2023/10/12 07:56:52;;;;;;;22.70;2.50;;;12.60;99.90;;;;;;4985406;28;20044;-78
2023/10/12 07:59:16;;;;;;;14.23;2.05;;;12.90;99.90;;;;;;4968127;28;20053;-76
2023/10/12 08:01:51;;;;;;;15.68;2.92;;;13.10;99.90;;;;;;4953441;28;20069;-79
2023/10/12 08:04:39;;;;;;;16.83;2.70;;;13.40;99.90;;;;;;4955392;28;20046;-81
2023/10/12 08:07:07;;;;;;;17.75;1.90;;;13.60;99.90;;;;;;4970890;28;20058;-77
2023/10/12 08:09:47;;;;;;;18.50;2.70;;;13.90;99.90;;;;;;4977782;28;21022;-81
2023/10/12 08:12:25;;;;;;;24.67;2.55;;;14.00;99.90;;;;;;4961014;28;20381;-77
2023/10/12 08:14:54;;;;;;;19.20;2.33;;;14.10;99.90;;;;;;4932991;28;20054;-77
2023/10/12 08:17:33;;;;;;;17.00;2.28;;;14.10;99.90;;;;;;4988558;28;20053;-81
2023/10/12 08:22:46;;;;;;;18.17;1.33;;;14.10;99.90;;;;;;4973937;28;20281;-78
2023/10/12 08:25:16;;;;;;;15.85;1.15;;;14.00;99.90;;;;;;4951591;28;20673;-79
2023/10/12 08:28:18;;;;;;;15.52;1.30;;;14.10;99.90;;;;;;4959736;28;20551;-80
2023/10/12 08:31:00;;;;;;;10.85;1.05;;;13.90;99.90;;;;;;4967670;28;20052;-82
2023/10/12 08:38:57;;;;;;;18.50;1.42;;;14.10;99.90;;;;;;4963504;28;20068;-81
2023/10/12 08:43:59;;;;;;;15.05;1.60;;;14.30;99.90;;;;;;4960758;28;20051;-80
2023/10/12 08:46:48;;;;;;;17.15;1.40;;;14.40;99.90;;;;;;4965886;28;20042;-80
2023/10/12 08:49:34;;;;;;;14.73;1.35;;;14.40;99.90;;;;;;4963423;28;20062;-77
2023/10/12 08:52:18;;;;;;;10.15;1.00;;;14.60;99.90;;;;;;4947128;28;20109;-79
2023/10/12 08:54:52;;;;;;;10.75;1.58;;;14.60;99.90;;;;;;4948880;28;20050;-81
2023/10/12 08:57:57;;;;;;;10.38;0.82;;;14.70;99.90;;;;;;4966336;28;20077;-80
2023/10/12 09:03:44;;;;;;;12.13;1.27;;;14.70;99.90;;;;;;4970674;28;20590;-75
2023/10/12 09:08:58;;;;;;;8.65;1.02;;;14.80;99.90;;;;;;4972191;28;20137;-77
2023/10/12 09:11:34;;;;;;;12.30;0.60;;;14.90;99.90;;;;;;4943630;28;20045;-80
2023/10/12 09:14:15;;;;;;;11.65;0.80;;;15.00;99.90;;;;;;4961941;28;20071;-80
2023/10/12 09:16:43;;;;;;;13.00;1.03;;;15.10;99.90;;;;;;4964061;28;20053;-79
2023/10/12 09:19:35;;;;;;;11.20;0.80;;;15.20;99.90;;;;;;4960752;28;20839;-81
2023/10/12 09:22:04;;;;;;;17.98;1.10;;;15.40;99.90;;;;;;4963592;28;20928;-77
2023/10/12 09:24:36;;;;;;;8.07;1.00;;;15.60;99.90;;;;;;4944838;28;20066;-82
2023/10/12 09:27:13;;;;;;;11.83;1.00;;;15.80;99.90;;;;;;4911766;28;20144;-80
2023/10/12 09:30:01;;;;;;;8.40;1.20;;;15.90;99.90;;;;;;4950579;23;20418;-80
2023/10/12 09:32:33;;;;;;;9.60;0.90;;;15.90;99.90;;;;;;4962305;28;20037;-81
2023/10/12 09:35:19;;;;;;;9.90;0.90;;;16.00;99.90;;;;;;4973174;28;20504;-79
2023/10/12 09:38:01;;;;;;;4.18;0.40;;;13.80;99.90;;;;;;4906867;28;20829;-77
2023/10/12 09:40:35;;;;;;;11.68;0.70;;;16.00;99.90;;;;;;4909144;28;20699;-79
2023/10/12 09:43:12;;;;;;;11.40;1.00;;;16.00;99.90;;;;;;4927411;28;20054;-79
2023/10/12 09:45:55;;;;;;;8.15;0.63;;;16.00;99.90;;;;;;4895322;28;20082;-78
2023/10/12 09:48:29;;;;;;;8.50;0.60;;;16.00;99.90;;;;;;4915134;28;20449;-78
2023/10/12 09:51:06;;;;;;;9.23;1.50;;;16.10;99.90;;;;;;4915531;28;21119;-79
2023/10/12 09:53:38;;;;;;;10.38;1.13;;;16.20;99.90;;;;;;4919788;28;20054;-81
2023/10/12 09:59:18;;;;;;;12.45;0.77;;;16.20;99.90;;;;;;4921978;28;20707;-83
2023/10/12 10:04:29;;;;;;;8.70;0.68;;;16.10;99.90;;;;;;4932648;28;20046;-81
2023/10/12 10:09:41;;;;;;;10.80;1.05;;;16.00;99.90;;;;;;4964558;28;20106;-80
2023/10/12 10:12:16;;;;;;;7.97;0.88;;;16.00;99.90;;;;;;4957449;28;20120;-77
2023/10/12 10:14:47;;;;;;;6.50;0.70;;;16.00;99.90;;;;;;4967751;28;20491;-77
2023/10/12 10:17:35;;;;;;;10.15;0.93;;;16.00;99.90;;;;;;4972655;28;20827;-77
2023/10/12 10:22:59;;;;;;;11.15;1.13;;;15.90;99.90;;;;;;4970751;28;20609;-80
2023/10/12 10:25:45;;;;;;;10.60;0.73;;;16.00;99.90;;;;;;4967373;28;20056;-80
2023/10/12 10:28:25;;;;;;;11.80;1.08;;;16.10;99.90;;;;;;4960137;28;22348;-79
2023/10/12 10:30:56;;;;;;;5.93;0.75;;;16.00;99.90;;;;;;4963063;28;20064;-78
2023/10/12 10:33:36;;;;;;;11.13;1.00;;;16.00;99.90;;;;;;4952005;28;20081;-76
2023/10/12 10:36:10;;;;;;;10.95;0.82;;;16.10;99.90;;;;;;4954416;28;20053;-80
2023/10/12 10:41:46;;;;;;;9.52;1.10;;;13.50;99.90;;;;;;4937073;28;22000;-78
2023/10/12 10:44:23;;;;;;;9.75;0.98;;;16.70;99.90;;;;;;4949920;28;20693;-80
2023/10/12 10:47:07;;;;;;;10.32;1.48;;;13.90;99.90;;;;;;4951170;28;20072;-81
2023/10/12 10:49:34;;;;;;;11.15;0.70;;;16.70;99.90;;;;;;4952688;28;20061;-81
2023/10/12 10:54:37;;;;;;;13.70;1.33;;;15.60;99.90;;;;;;4944433;28;20483;-81
2023/10/12 10:57:24;;;;;;;14.32;0.70;;;16.70;99.90;;;;;;4956398;28;20038;-81
2023/10/12 10:59:51;;;;;;;9.25;0.82;;;16.50;99.90;;;;;;4957886;28;20065;-81
2023/10/12 11:02:24;;;;;;;9.75;1.20;;;16.90;99.90;;;;;;4940279;28;20088;-82
2023/10/12 11:05:00;;;;;;;13.27;0.75;;;16.50;99.90;;;;;;4918416;28;20053;-82
2023/10/12 11:07:26;;;;;;;11.23;1.58;;;16.30;99.90;;;;;;4917455;28;20770;-81
2023/10/12 11:12:26;;;;;;;10.48;1.02;;;16.20;99.90;;;;;;4947630;28;21088;-83
2023/10/12 11:15:11;;;;;;;9.25;1.00;;;16.30;99.90;;;;;;4895860;28;21277;-82
2023/10/12 11:17:56;;;;;;;10.82;1.10;;;15.00;99.90;;;;;;4937464;28;20568;-80
2023/10/12 11:20:34;;;;;;;10.43;0.98;;;16.40;99.90;;;;;;4936045;28;20476;-79
2023/10/12 11:23:04;;;;;;;14.45;1.40;;;16.40;99.90;;;;;;4917713;28;20049;-82
2023/10/12 11:25:39;;;;;;;11.48;1.00;;;16.30;99.90;;;;;;4921288;28;20065;-84
2023/10/12 11:28:26;;;;;;;9.77;1.13;;;16.20;99.90;;;;;;4916546;28;20096;-81
2023/10/12 11:31:01;;;;;;;11.35;1.40;;;13.80;99.90;;;;;;4937671;28;20615;-81
2023/10/12 11:33:29;;;;;;;7.45;0.73;;;16.00;99.90;;;;;;4915773;28;20057;-81
2023/10/12 11:36:00;;;;;;;11.60;0.90;;;16.00;99.90;;;;;;4932297;28;20058;-80
2023/10/12 11:38:27;;;;;;;9.70;0.93;;;16.10;99.90;;;;;;4941950;28;20053;-80
2023/10/12 11:41:10;;;;;;;8.93;0.73;;;14.40;99.90;;;;;;4962680;28;20689;-79
2023/10/12 11:43:52;;;;;;;9.10;1.58;;;16.10;99.90;;;;;;4943345;28;20619;-78
2023/10/12 11:46:18;;;;;;;11.23;1.33;;;16.00;99.90;;;;;;4925524;28;20933;-81
2023/10/12 11:48:44;;;;;;;6.78;0.77;;;16.00;99.90;;;;;;4950712;28;20476;-79
2023/10/12 11:51:11;;;;;;;14.45;1.27;;;16.10;99.90;;;;;;4968008;28;20154;-78
2023/10/12 11:53:41;;;;;;;7.13;0.60;;;16.20;99.90;;;;;;4950780;28;20551;-82
2023/10/12 11:56:15;;;;;;;11.18;1.67;;;15.30;99.90;;;;;;4960071;28;20049;-83
2023/10/12 11:58:41;;;;;;;7.28;0.68;;;19.20;99.90;;;;;;4959958;28;20065;-79
2023/10/12 12:01:10;;;;;;;14.23;0.90;;;16.40;99.90;;;;;;4955318;28;20423;-80
2023/10/12 12:03:45;;;;;;;9.40;1.00;;;16.50;99.90;;;;;;4964255;28;20300;-80
2023/10/12 12:06:21;;;;;;;12.45;1.35;;;16.30;99.90;;;;;;4958907;28;20057;-80
2023/10/12 12:09:07;;;;;;;11.75;1.15;;;17.00;99.90;;;;;;4966659;28;20053;-78
2023/10/12 12:11:37;;;;;;;14.25;1.15;;;16.50;99.90;;;;;;4960217;28;20057;-79
2023/10/12 12:14:06;;;;;;;8.88;0.50;;;16.40;99.90;;;;;;4979901;28;20244;-81
2023/10/12 12:16:46;;;;;;;10.85;1.15;;;16.40;99.90;;;;;;4960666;28;20148;-81
2023/10/12 12:19:24;;;;;;;10.63;0.90;;;16.30;99.90;;;;;;4970375;28;20053;-81
2023/10/12 12:21:55;;;;;;;7.90;0.90;;;16.30;99.90;;;;;;4977981;28;20050;-81
2023/10/12 12:24:24;;;;;;;8.13;1.40;;;16.20;99.90;;;;;;4975057;28;20057;-81
2023/10/12 12:26:56;;;;;;;14.23;2.85;;;16.30;99.90;;;;;;4985932;28;20050;-79
2023/10/12 12:29:27;;;;;;;10.27;1.42;;;16.20;99.90;;;;;;4967286;28;20064;-80
2023/10/12 12:32:03;;;;;;;8.35;0.77;;;16.30;99.90;;;;;;4967983;28;20786;-83
2023/10/12 12:34:41;;;;;;;9.90;1.65;;;16.30;99.90;;;;;;4950234;28;20869;-81
2023/10/12 12:37:29;;;;;;;9.23;0.93;;;16.20;99.90;;;;;;4967923;28;20461;-82
2023/10/12 12:43:13;;;;;;;5.88;0.52;;;16.10;99.90;;;;;;4965261;28;20049;-81
2023/10/12 12:45:53;;;;;;;;;;;16.10;99.90;;;;;;4972201;28;20927;-80
2023/10/12 12:48:24;;;;;;;8.52;1.08;;;16.10;99.90;;;;;;4970925;28;19960;-82
2023/10/12 12:50:52;;;;;;;8.48;0.63;;;16.00;99.90;;;;;;4974793;28;20103;-81
2023/10/12 12:53:18;;;;;;;13.70;1.88;;;15.90;99.90;;;;;;4976690;28;20049;-83
2023/10/12 12:55:47;;;;;;;11.68;0.95;;;15.90;99.90;;;;;;4973974;28;20049;-81
2023/10/12 12:58:23;;;;;;;7.15;0.57;;;15.90;99.90;;;;;;4989777;28;20054;-80
2023/10/12 13:00:52;;;;;;;3.67;0.77;;;15.90;99.90;;;;;;4972186;28;20227;-81
2023/10/12 13:03:45;;;;;;;9.32;1.55;;;15.90;99.90;;;;;;4968280;28;20091;-81
2023/10/12 13:06:16;;;;;;;9.52;0.55;;;15.90;99.90;;;;;;4973088;28;20538;-78
2023/10/12 13:08:42;;;;;;;8.88;1.00;;;15.90;99.90;;;;;;4964914;28;20148;-82
2023/10/12 13:11:29;;;;;;;11.02;0.93;;;15.90;99.90;;;;;;4966261;28;20126;-80
2023/10/12 13:14:08;;;;;;;7.80;0.82;;;15.80;99.90;;;;;;4974694;28;20760;-81
2023/10/12 13:16:43;;;;;;;7.57;0.57;;;18.90;99.90;;;;;;4958321;28;20721;-81
2023/10/12 13:19:51;;;;;;;9.82;1.17;;;15.80;99.90;;;;;;4972271;28;20049;-83
2023/10/12 13:22:19;;;;;;;5.07;0.57;;;15.60;99.90;;;;;;4974780;28;20643;-81
2023/10/12 13:24:48;;;;;;;11.15;0.75;;;15.50;99.90;;;;;;4968878;28;20663;-82
2023/10/12 13:27:20;;;;;;;12.52;1.55;;;15.40;99.90;;;;;;4965943;28;20042;-79
2023/10/12 13:30:00;;;;;;;12.80;1.17;;;15.40;99.90;;;;;;4969731;28;21375;-81
2023/10/12 13:32:42;;;;;;;9.50;1.00;;;15.30;99.90;;;;;;4962781;28;20903;-81
2023/10/12 13:38:06;;;;;;;13.07;1.50;;;15.10;99.90;;;;;;4968624;28;20050;-82
2023/10/12 13:40:48;;;;;;;6.70;0.60;;;15.00;99.90;;;;;;4966684;28;20053;-78
2023/10/12 13:43:15;;;;;;;10.77;1.50;;;15.00;99.90;;;;;;4972028;28;20042;-78
2023/10/12 13:45:47;;;;;;;5.85;0.82;;;14.90;99.90;;;;;;4953760;28;20144;-80
2023/10/12 13:48:24;;;;;;;;;;;14.90;99.90;;;;;;4979271;28;20845;-79
2023/10/12 13:50:59;;;;;;;14.85;1.98;;;14.80;99.90;;;;;;4992430;28;20071;-78
2023/10/12 13:53:41;;;;;;;13.00;0.93;;;14.70;99.90;;;;;;4990790;28;20683;-76
2023/10/12 13:56:11;;;;;;;9.93;0.82;;;14.70;99.90;;;;;;4991991;28;20049;-78
2023/10/12 13:58:58;;;;;;;10.45;1.10;;;14.60;99.90;;;;;;4977349;28;20113;-80
2023/10/12 14:01:26;;;;;;;12.13;1.10;;;14.60;99.90;;;;;;4969533;28;20057;-79
2023/10/12 14:03:55;;;;;;;15.07;1.30;;;14.60;99.90;;;;;;4971775;28;20136;-79
2023/10/12 14:06:24;;;;;;;6.90;0.70;;;14.50;99.90;;;;;;4974746;28;20135;-79
2023/10/12 14:08:50;;;;;;;15.02;1.27;;;14.60;99.90;;;;;;4974652;28;20065;-83
2023/10/12 14:11:17;;;;;;;12.90;1.15;;;14.50;99.90;;;;;;4958255;28;20065;-79
2023/10/12 14:13:44;;;;;;;10.30;0.70;;;14.50;99.90;;;;;;4977761;28;20207;-80
2023/10/12 14:16:11;;;;;;;10.27;1.13;;;14.50;99.90;;;;;;4974058;28;20156;-79
2023/10/12 14:18:38;;;;;;;11.63;1.10;;;14.50;99.90;;;;;;4984711;28;20088;-80
2023/10/12 14:21:11;;;;;;;9.70;1.00;;;14.40;99.90;;;;;;4960990;28;20065;-81
2023/10/12 14:23:43;;;;;;;12.07;1.48;;;14.30;99.90;;;;;;4975023;28;20096;-81
2023/10/12 14:26:22;;;;;;;10.07;1.00;;;15.70;99.90;;;;;;4987251;28;20524;-81
2023/10/12 14:28:54;;;;;;;14.45;2.85;;;14.20;99.90;;;;;;4988805;28;20128;-79
2023/10/12 14:31:21;;;;;;;6.95;0.73;;;14.10;99.90;;;;;;4984618;28;20041;-79
2023/10/12 14:33:47;;;;;;;9.82;0.63;;;14.10;99.90;;;;;;4989104;28;20151;-79
2023/10/12 14:36:12;;;;;;;8.45;0.70;;;14.00;99.90;;;;;;4987898;28;20132;-79
2023/10/12 14:38:44;;;;;;;9.18;1.35;;;14.00;99.90;;;;;;4994577;28;20045;-79
2023/10/12 14:41:16;;;;;;;8.55;0.88;;;13.90;99.90;;;;;;4985335;28;20590;-78
2023/10/12 14:43:46;;;;;;;14.18;1.77;;;13.90;99.90;;;;;;4991004;28;20120;-80
2023/10/12 14:46:13;;;;;;;5.50;0.60;;;13.90;99.90;;;;;;4990254;28;20480;-77
2023/10/12 14:48:43;;;;;;;7.82;1.15;;;13.90;99.90;;;;;;4992542;28;20076;-79
2023/10/12 14:51:17;;;;;;;8.35;0.82;;;13.90;99.90;;;;;;4996520;28;20485;-80
2023/10/12 14:53:44;;;;;;;8.73;1.23;;;13.90;99.90;;;;;;4987127;28;20103;-79
2023/10/12 14:56:14;;;;;;;9.07;0.60;;;13.90;99.90;;;;;;4968634;28;20120;-77
2023/10/12 14:58:40;;;;;;;10.98;0.68;;;13.90;99.90;;;;;;4992298;28;20085;-78
2023/10/12 15:01:17;;;;;;;12.73;1.13;;;13.90;99.90;;;;;;4983287;28;20049;-80
2023/10/12 15:03:47;;;;;;;10.65;0.80;;;13.90;99.90;;;;;;4995434;28;20063;-77
2023/10/12 15:06:13;;;;;;;10.48;1.00;;;14.00;99.90;;;;;;4977721;28;20053;-81
2023/10/12 15:08:39;;;;;;;13.93;1.00;;;14.00;99.90;;;;;;4995156;28;20107;-79
2023/10/12 15:11:09;;;;;;;12.10;0.80;;;14.00;99.90;;;;;;4980411;28;20061;-73
2023/10/12 15:13:37;;;;;;;10.75;1.17;;;14.00;99.90;;;;;;4632622;28;9999734;-80
2023/10/12 15:16:10;;;;;;;13.75;1.52;;;13.90;99.90;;;;;;5000192;28;20425;-79
2023/10/12 15:18:39;;;;;;;9.20;1.73;;;13.90;99.90;;;;;;4987779;28;20138;-79
2023/10/12 15:21:12;;;;;;;11.90;1.40;;;13.80;99.90;;;;;;4991602;28;20226;-78
2023/10/12 15:23:38;;;;;;;16.52;2.13;;;13.70;99.90;;;;;;4987411;28;20046;-79
2023/10/12 15:26:06;;;;;;;9.65;1.55;;;13.70;99.90;;;;;;5015021;28;20102;-79
2023/10/12 15:28:34;;;;;;;7.20;1.00;;;13.70;99.90;;;;;;4993100;28;20066;-78
2023/10/12 15:31:03;;;;;;;11.18;1.17;;;13.60;99.90;;;;;;4973729;28;20126;-79
2023/10/12 15:33:30;;;;;;;9.48;1.67;;;13.60;99.90;;;;;;4989626;28;20124;-77